Terminal Aerodrome Forecast
Issued by NWS

Home | Current Version | Previous Version | Text Only | Print | Product List | Glossary On
Versions: 1 2 3 4 5 6 7 8 9 10 11 12 13 14 15 16
518
FTUS41 KPBZ 282118 AAB
TAFMGW
TAF AMD
KMGW 282118Z 2821/2918 11012G18KT P6SM BKN080
     FM290300 12007KT P6SM VCSH BKN035
     FM290800 10008KT P6SM -SHRA BKN020
     FM291200 08005KT P6SM VCSH BKN015=

USA.gov is the U.S. government's official web portal to all federal, state and local government web resources and services.